createdAt,value
2024-04-12T00:00:48.487Z,8.70
2024-04-12T00:03:50.863Z,9.07
2024-04-12T00:07:01.532Z,9.75
2024-04-12T00:10:07.586Z,9.75
2024-04-12T00:13:09.905Z,10.20
2024-04-12T00:16:12.537Z,9.83
2024-04-12T00:19:20.084Z,9.32
2024-04-12T00:22:23.648Z,10.05
2024-04-12T00:25:25.991Z,9.82
2024-04-12T00:28:31.308Z,10.68
2024-04-12T00:31:43.543Z,9.97
2024-04-12T00:34:49.724Z,10.10
2024-04-12T00:37:55.186Z,10.90
2024-04-12T00:41:01.457Z,10.38
2024-04-12T00:44:06.809Z,10.23
2024-04-12T00:47:12.037Z,10.57
2024-04-12T00:50:17.897Z,9.90
2024-04-12T00:53:23.827Z,9.98
2024-04-12T00:56:30.567Z,10.02
2024-04-12T00:59:33.007Z,10.40
2024-04-12T01:02:45.167Z,9.13
2024-04-12T01:05:48.838Z,9.40
2024-04-12T01:08:55.933Z,8.68
2024-04-12T01:12:00.772Z,9.07
2024-04-12T01:15:04.945Z,9.63
2024-04-12T01:18:13.309Z,8.77
2024-04-12T01:21:17.065Z,9.25
2024-04-12T01:24:19.419Z,8.77
2024-04-12T01:27:23.465Z,8.77
2024-04-12T01:30:26.058Z,8.77
2024-04-12T01:33:28.484Z,8.87
2024-04-12T01:36:33.705Z,8.80
2024-04-12T01:39:36.171Z,8.45
2024-04-12T01:42:39.515Z,8.10
2024-04-12T01:45:41.895Z,8.80
2024-04-12T01:48:45.441Z,9.07
2024-04-12T01:51:49.188Z,8.45
2024-04-12T01:55:06.629Z,8.48
2024-04-12T01:58:09.002Z,8.43
2024-04-12T02:01:15.398Z,8.85
2024-04-12T02:04:22.435Z,9.03
2024-04-12T02:07:28.388Z,9.80
2024-04-12T02:10:30.666Z,8.98
2024-04-12T02:13:39.680Z,8.63
2024-04-12T02:16:43.269Z,8.63
2024-04-12T02:19:48.354Z,8.07
2024-04-12T02:22:51.054Z,8.65
2024-04-12T02:25:53.365Z,8.32
2024-04-12T02:29:00.329Z,8.50
2024-04-12T02:32:02.622Z,8.50
2024-04-12T02:35:05.214Z,8.47
2024-04-12T02:38:07.914Z,7.93
2024-04-12T02:41:15.541Z,8.70
2024-04-12T02:44:18.574Z,7.95
2024-04-12T02:47:21.227Z,8.55
2024-04-12T02:50:24.568Z,8.43
2024-04-12T02:53:31.001Z,8.20
2024-04-12T02:56:35.045Z,8.82
2024-04-12T02:59:37.438Z,7.47
2024-04-12T03:02:39.788Z,8.93
2024-04-12T03:05:43.566Z,8.13
2024-04-12T03:08:49.935Z,8.38
2024-04-12T03:11:52.290Z,7.93
2024-04-12T03:14:55.883Z,8.43
2024-04-12T03:17:58.420Z,7.90
2024-04-12T03:21:01.046Z,7.43
2024-04-12T03:24:05.850Z,7.57
2024-04-12T03:27:08.369Z,8.10
2024-04-12T03:30:16.934Z,7.32
2024-04-12T03:33:19.410Z,7.28
2024-04-12T03:36:28.642Z,6.33
2024-04-12T03:39:35.463Z,6.90
2024-04-12T03:42:42.624Z,6.85
2024-04-12T03:45:49.043Z,7.18
2024-04-12T03:48:54.898Z,6.97
2024-04-12T03:51:57.787Z,6.47
2024-04-12T03:55:10.558Z,6.68
2024-04-12T03:58:18.515Z,7.75
2024-04-12T04:01:21.097Z,6.93
2024-04-12T04:04:27.031Z,6.63
2024-04-12T04:07:29.367Z,6.83
2024-04-12T04:10:32.416Z,6.25
2024-04-12T04:13:35.583Z,7.85
2024-04-12T04:16:38.148Z,7.35
2024-04-12T04:19:42.713Z,6.43
2024-04-12T04:22:50.580Z,6.53
2024-04-12T04:25:56.431Z,6.47
2024-04-12T04:29:02.131Z,6.63
2024-04-12T04:32:07.951Z,8.02
2024-04-12T04:35:11.423Z,7.53
2024-04-12T04:38:16.072Z,7.17
2024-04-12T04:41:21.654Z,6.97
2024-04-12T04:44:25.842Z,6.78
2024-04-12T04:47:30.013Z,7.15
2024-04-12T04:50:33.007Z,7.38
2024-04-12T04:53:36.906Z,7.57
2024-04-12T04:56:40.494Z,7.72
2024-04-12T04:59:46.657Z,7.60
2024-04-12T05:02:53.911Z,7.88
2024-04-12T05:05:56.291Z,8.40
2024-04-12T05:09:02.182Z,8.70
2024-04-12T05:12:06.787Z,9.18
2024-04-12T05:15:32.046Z,9.15
2024-04-12T05:18:36.279Z,10.02
2024-04-12T05:21:42.188Z,9.45
2024-04-12T05:24:44.530Z,8.60
2024-04-12T05:27:46.877Z,9.63
2024-04-12T05:30:52.020Z,8.98
2024-04-12T05:33:57.362Z,10.07
2024-04-12T05:37:05.965Z,9.40
2024-04-12T05:40:09.527Z,9.60
2024-04-12T05:43:17.899Z,10.02
2024-04-12T05:46:24.680Z,8.65
2024-04-12T05:49:28.272Z,8.27
2024-04-12T05:52:31.112Z,8.80
2024-04-12T05:55:34.174Z,9.20
2024-04-12T05:58:38.168Z,8.77
2024-04-12T06:01:49.116Z,8.27
2024-04-12T06:04:51.823Z,8.48
2024-04-12T06:07:59.819Z,7.40
2024-04-12T06:11:04.748Z,7.33
2024-04-12T06:14:07.737Z,7.03
2024-04-12T06:17:10.939Z,7.15
2024-04-12T06:20:13.645Z,7.05
2024-04-12T06:23:20.800Z,7.20
2024-04-12T06:26:24.017Z,6.57
2024-04-12T06:29:33.061Z,7.22
2024-04-12T06:32:40.951Z,7.30
2024-04-12T06:35:46.089Z,6.97
2024-04-12T06:38:48.529Z,6.80
2024-04-12T06:41:52.465Z,6.27
2024-04-12T06:44:58.327Z,5.80
2024-04-12T06:48:04.986Z,5.25
2024-04-12T06:51:13.355Z,5.63
2024-04-12T06:54:17.908Z,5.43
2024-04-12T06:57:23.890Z,5.37
2024-04-12T07:00:31.087Z,5.40
2024-04-12T07:03:35.950Z,5.03
2024-04-12T07:06:38.622Z,4.93
2024-04-12T07:09:46.938Z,5.18
2024-04-12T07:12:49.543Z,5.20
2024-04-12T07:15:51.916Z,4.97
2024-04-12T07:18:57.087Z,4.85
2024-04-12T07:21:59.475Z,5.28
2024-04-12T07:25:07.507Z,5.20
2024-04-12T07:28:10.122Z,4.53
2024-04-12T07:31:16.214Z,4.90
2024-04-12T07:34:18.645Z,4.70
2024-04-12T07:37:33.866Z,4.28
2024-04-12T07:40:41.313Z,5.20
2024-04-12T07:43:47.943Z,5.63
2024-04-12T07:46:51.168Z,5.40
2024-04-12T07:49:55.894Z,5.38
2024-04-12T07:52:58.227Z,4.88
2024-04-12T07:56:10.702Z,4.82
2024-04-12T07:59:29.305Z,5.27
2024-04-12T08:02:36.528Z,5.47
2024-04-12T08:05:50.386Z,5.18
2024-04-12T08:09:05.640Z,5.55
2024-04-12T08:12:16.811Z,5.20
2024-04-12T08:15:19.518Z,5.03
2024-04-12T08:18:22.448Z,5.07
2024-04-12T08:21:29.527Z,4.68
2024-04-12T08:24:35.009Z,4.38
2024-04-12T08:27:42.910Z,4.50
2024-04-12T08:31:07.024Z,4.33
2024-04-12T08:34:15.673Z,4.32
2024-04-12T08:37:18.998Z,4.75
2024-04-12T08:40:22.936Z,4.90
2024-04-12T08:43:43.179Z,4.68
2024-04-12T08:46:48.407Z,4.90
2024-04-12T08:49:53.119Z,4.70
2024-04-12T08:52:59.291Z,5.05
2024-04-12T08:56:02.602Z,4.47
2024-04-12T08:59:08.407Z,5.03
2024-04-12T09:02:14.518Z,4.60
2024-04-12T09:05:23.050Z,4.60
2024-04-12T09:08:32.551Z,4.72
2024-04-12T09:11:38.080Z,5.10
2024-04-12T09:14:43.454Z,4.32
2024-04-12T09:17:51.608Z,4.50
2024-04-12T09:21:04.029Z,4.53
2024-04-12T09:24:11.951Z,4.97
2024-04-12T09:27:23.957Z,4.60
2024-04-12T09:30:45.073Z,4.88
2024-04-12T09:33:58.150Z,4.37
2024-04-12T09:37:04.380Z,4.50
2024-04-12T09:40:25.828Z,4.20
2024-04-12T09:43:30.534Z,4.55
2024-04-12T09:47:08.796Z,4.57
2024-04-12T09:50:31.860Z,4.70
2024-04-12T09:53:55.086Z,4.57
2024-04-12T09:57:16.836Z,4.35
2024-04-12T10:00:41.609Z,4.60
2024-04-12T10:04:06.987Z,4.55
2024-04-12T10:07:28.905Z,4.70
2024-04-12T10:10:50.568Z,4.35
2024-04-12T10:14:13.420Z,4.43
2024-04-12T10:17:40.264Z,4.40
2024-04-12T10:21:02.089Z,4.70
2024-04-12T10:24:23.182Z,3.90
2024-04-12T10:27:48.022Z,4.38
2024-04-12T10:31:09.070Z,4.40
2024-04-12T10:34:35.468Z,4.15
2024-04-12T10:37:38.036Z,4.68
2024-04-12T10:40:42.033Z,4.70
2024-04-12T10:43:44.615Z,4.15
2024-04-12T10:46:49.048Z,4.43
2024-04-12T10:49:52.630Z,4.15
2024-04-12T10:52:58.863Z,4.38
2024-04-12T10:56:04.293Z,4.10
2024-04-12T10:59:07.840Z,4.30
2024-04-12T11:02:13.331Z,4.20
2024-04-12T11:05:20.570Z,3.83
2024-04-12T11:08:27.719Z,3.97
2024-04-12T11:11:32.595Z,4.10
2024-04-12T11:14:35.358Z,4.30
2024-04-12T11:17:56.681Z,4.03
2024-04-12T11:21:18.379Z,4.22
2024-04-12T11:24:39.474Z,4.53
2024-04-12T11:28:00.342Z,3.97
2024-04-12T11:31:16.308Z,4.25
2024-04-12T11:34:28.370Z,4.00
2024-04-12T11:37:44.427Z,4.07
2024-04-12T11:40:50.113Z,4.30
2024-04-12T11:43:53.549Z,4.07
2024-04-12T11:46:57.753Z,5.18
2024-04-12T11:50:05.944Z,5.28
2024-04-12T11:53:12.186Z,5.13
2024-04-12T11:56:14.791Z,5.03
2024-04-12T11:59:19.698Z,5.20
2024-04-12T12:02:26.392Z,5.03
2024-04-12T12:05:30.243Z,4.80
2024-04-12T12:08:41.945Z,5.22
2024-04-12T12:11:44.613Z,5.07
2024-04-12T12:14:53.036Z,5.10
2024-04-12T12:17:58.240Z,4.93
2024-04-12T12:21:00.814Z,5.10
2024-04-12T12:24:05.631Z,4.95
2024-04-12T12:27:10.106Z,4.97
2024-04-12T12:30:16.025Z,5.47
2024-04-12T12:33:23.474Z,5.25
2024-04-12T12:36:29.043Z,4.60
2024-04-12T12:39:34.342Z,5.10
2024-04-12T12:42:38.602Z,5.80
2024-04-12T12:45:42.232Z,5.50
2024-04-12T12:48:44.842Z,5.40
2024-04-12T12:51:49.178Z,5.13
2024-04-12T12:54:51.511Z,4.93
2024-04-12T12:58:13.169Z,5.55
2024-04-12T13:01:17.869Z,5.17
2024-04-12T13:04:20.364Z,5.25
2024-04-12T13:07:23.632Z,5.20
2024-04-12T13:10:26.049Z,5.28
2024-04-12T13:13:28.366Z,5.15
2024-04-12T13:16:42.772Z,5.13
2024-04-12T13:19:45.743Z,5.25
2024-04-12T13:22:50.957Z,5.80
2024-04-12T13:25:54.410Z,5.25
2024-04-12T13:28:56.735Z,5.03
2024-04-12T13:31:59.142Z,5.10
2024-04-12T13:35:01.499Z,5.13
2024-04-12T13:38:05.029Z,5.30
2024-04-12T13:41:12.024Z,5.18
2024-04-12T13:44:47.019Z,4.80
2024-04-12T13:48:08.273Z,5.40
2024-04-12T13:51:11.883Z,4.90
2024-04-12T13:54:15.548Z,4.95
2024-04-12T13:57:19.118Z,5.10
2024-04-12T14:00:33.447Z,5.32
2024-04-12T14:03:36.277Z,4.77
2024-04-12T14:06:39.381Z,5.05
2024-04-12T14:09:41.695Z,5.30
2024-04-12T14:12:44.036Z,4.90
2024-04-12T14:15:48.525Z,4.68
2024-04-12T14:18:52.045Z,4.93
2024-04-12T14:21:54.836Z,4.85
2024-04-12T14:24:57.748Z,4.85
2024-04-12T14:28:00.041Z,4.85
2024-04-12T14:31:03.759Z,4.60
2024-04-12T14:34:09.264Z,4.43
2024-04-12T14:37:15.205Z,4.20
2024-04-12T14:40:22.013Z,4.30
2024-04-12T14:43:25.992Z,4.60
2024-04-12T14:46:30.468Z,4.25
2024-04-12T14:49:32.900Z,3.90
2024-04-12T14:52:35.360Z,4.30
2024-04-12T14:55:37.800Z,3.95
2024-04-12T14:58:40.198Z,3.10
2024-04-12T15:01:43.271Z,3.28
2024-04-12T15:05:04.530Z,3.30
2024-04-12T15:08:29.489Z,3.38
2024-04-12T15:11:50.468Z,3.03
2024-04-12T15:15:11.637Z,2.80
2024-04-12T15:18:32.872Z,2.60
2024-04-12T15:21:54.494Z,2.70
2024-04-12T15:25:15.650Z,2.65
2024-04-12T15:28:36.823Z,2.88
2024-04-12T15:31:58.026Z,2.92
2024-04-12T15:35:19.093Z,3.42
2024-04-12T15:38:40.151Z,3.00
2024-04-12T15:42:01.541Z,2.83
2024-04-12T15:45:22.666Z,2.50
2024-04-12T15:48:27.772Z,2.65
2024-04-12T15:51:30.319Z,2.33
2024-04-12T15:54:36.727Z,2.23
2024-04-12T15:58:05.414Z,2.42
2024-04-12T16:01:26.211Z,2.03
2024-04-12T16:04:47.166Z,2.40
2024-04-12T16:08:08.072Z,2.40
2024-04-12T16:11:12.220Z,2.20
2024-04-12T16:14:14.691Z,1.92
2024-04-12T16:17:17.215Z,2.15
2024-04-12T16:20:19.576Z,2.15
2024-04-12T16:23:21.989Z,2.03
2024-04-12T16:26:24.534Z,1.80
2024-04-12T16:29:26.947Z,1.98
2024-04-12T16:32:29.314Z,1.85
2024-04-12T16:35:31.644Z,1.85
2024-04-12T16:38:35.112Z,1.95
2024-04-12T16:41:37.651Z,1.80
2024-04-12T16:44:39.996Z,1.70
2024-04-12T16:47:42.632Z,1.70
2024-04-12T16:50:45.258Z,1.98
2024-04-12T16:53:47.655Z,1.60
2024-04-12T16:56:50.150Z,1.50
2024-04-12T16:59:52.635Z,1.95
2024-04-12T17:02:55.075Z,1.90
2024-04-12T17:05:57.489Z,1.80
2024-04-12T17:08:59.948Z,1.90
2024-04-12T17:12:02.571Z,1.83
2024-04-12T17:15:06.051Z,1.70
2024-04-12T17:18:08.549Z,1.95
2024-04-12T17:21:11.031Z,1.60
2024-04-12T17:24:15.442Z,1.65
2024-04-12T17:27:17.955Z,1.87
2024-04-12T17:30:22.743Z,2.10
2024-04-12T17:33:29.123Z,1.88
2024-04-12T17:36:31.596Z,1.70
2024-04-12T17:39:33.972Z,1.50
2024-04-12T17:42:36.306Z,1.60
2024-04-12T17:45:38.632Z,1.90
2024-04-12T17:48:41.641Z,1.67
2024-04-12T17:51:44.284Z,1.70
2024-04-12T17:54:46.692Z,1.67
2024-04-12T17:57:50.587Z,1.80
2024-04-12T18:01:03.243Z,2.22
2024-04-12T18:04:08.219Z,2.38
2024-04-12T18:07:11.403Z,1.83
2024-04-12T18:10:13.861Z,2.13
2024-04-12T18:13:16.266Z,2.40
2024-04-12T18:16:21.095Z,2.10
2024-04-12T18:19:23.510Z,2.85
2024-04-12T18:22:25.856Z,3.40
2024-04-12T18:25:28.640Z,2.85
2024-04-12T18:28:31.005Z,2.50
2024-04-12T18:31:33.367Z,2.85
2024-04-12T18:34:35.899Z,3.05
2024-04-12T18:37:56.973Z,2.97
2024-04-12T18:41:17.953Z,3.45
2024-04-12T18:44:38.738Z,3.07
2024-04-12T18:47:41.416Z,2.80
2024-04-12T18:50:43.807Z,2.90
2024-04-12T18:53:46.295Z,3.10
2024-04-12T18:56:48.782Z,3.15
2024-04-12T18:59:54.930Z,2.93
2024-04-12T19:02:57.689Z,2.88
2024-04-12T19:06:07.325Z,3.20
2024-04-12T19:09:11.990Z,2.78
2024-04-12T19:12:16.313Z,2.88
2024-04-12T19:15:18.695Z,2.77
2024-04-12T19:18:21.657Z,2.85
2024-04-12T19:21:26.275Z,3.10
2024-04-12T19:24:28.873Z,2.92
2024-04-12T19:27:32.769Z,2.78
2024-04-12T19:30:40.814Z,3.13
2024-04-12T19:33:43.291Z,2.83
2024-04-12T19:36:46.202Z,2.95
2024-04-12T19:39:51.117Z,2.83
2024-04-12T19:42:54.287Z,2.63
2024-04-12T19:45:57.372Z,3.00
2024-04-12T19:49:01.560Z,2.60
2024-04-12T19:52:04.629Z,3.60
2024-04-12T19:55:07.343Z,3.40
2024-04-12T19:58:09.653Z,4.07
2024-04-12T20:01:12.864Z,3.87
2024-04-12T20:04:15.693Z,3.05
2024-04-12T20:07:18.137Z,3.22
2024-04-12T20:10:20.608Z,3.08
2024-04-12T20:13:23.101Z,3.90
2024-04-12T20:16:25.433Z,3.43
2024-04-12T20:19:27.752Z,3.08
2024-04-12T20:22:30.197Z,3.47
2024-04-12T20:25:33.522Z,3.63
2024-04-12T20:28:35.921Z,3.88
2024-04-12T20:31:43.369Z,3.80
2024-04-12T20:34:56.590Z,4.10
2024-04-12T20:38:01.334Z,5.05
2024-04-12T20:41:03.772Z,4.30
2024-04-12T20:44:06.643Z,4.40
2024-04-12T20:47:09.018Z,4.50
2024-04-12T20:50:11.623Z,4.82
2024-04-12T20:53:13.996Z,4.45
2024-04-12T20:56:16.444Z,4.10
2024-04-12T20:59:22.033Z,4.97
2024-04-12T21:02:24.443Z,4.03
2024-04-12T21:05:27.012Z,4.20
2024-04-12T21:08:29.877Z,4.53
2024-04-12T21:11:32.293Z,4.30
2024-04-12T21:14:34.644Z,4.38
2024-04-12T21:17:38.712Z,4.17
2024-04-12T21:20:41.312Z,4.78
2024-04-12T21:23:43.731Z,4.85
2024-04-12T21:26:46.397Z,4.90
2024-04-12T21:29:48.704Z,4.90
2024-04-12T21:32:55.801Z,4.50
2024-04-12T21:36:01.821Z,4.43
2024-04-12T21:39:06.340Z,4.75
2024-04-12T21:42:08.977Z,4.32
2024-04-12T21:45:11.355Z,5.40
2024-04-12T21:48:13.758Z,4.73
2024-04-12T21:51:17.931Z,4.35
2024-04-12T21:54:20.366Z,4.30
2024-04-12T21:57:22.768Z,4.10
2024-04-12T22:00:25.197Z,4.50
2024-04-12T22:03:28.404Z,3.70
2024-04-12T22:06:30.915Z,4.13
2024-04-12T22:09:34.655Z,4.20
2024-04-12T22:12:37.094Z,4.55
2024-04-12T22:15:39.463Z,4.35
2024-04-12T22:18:42.371Z,4.20
2024-04-12T22:21:44.901Z,4.30
2024-04-12T22:24:47.251Z,3.67
2024-04-12T22:27:49.553Z,4.38
2024-04-12T22:30:53.625Z,4.30
2024-04-12T22:33:56.026Z,4.03
2024-04-12T22:36:58.359Z,4.28
2024-04-12T22:40:00.716Z,4.57
2024-04-12T22:43:03.034Z,4.40
2024-04-12T22:46:05.534Z,4.38
2024-04-12T22:49:07.882Z,4.40
2024-04-12T22:52:10.423Z,4.53
2024-04-12T22:55:12.760Z,4.90
2024-04-12T22:58:15.173Z,4.47
2024-04-12T23:01:17.746Z,4.18
2024-04-12T23:04:20.214Z,4.23
2024-04-12T23:07:22.564Z,3.72
2024-04-12T23:10:24.973Z,3.88
2024-04-12T23:13:27.301Z,4.30
2024-04-12T23:16:30.498Z,4.18
2024-04-12T23:19:33.727Z,4.00
2024-04-12T23:22:36.066Z,4.32
2024-04-12T23:25:38.424Z,4.80
2024-04-12T23:28:40.760Z,4.70
2024-04-12T23:31:43.134Z,4.28
2024-04-12T23:34:48.414Z,4.30
2024-04-12T23:37:50.678Z,4.25
2024-04-12T23:40:53.012Z,4.00
2024-04-12T23:43:55.395Z,3.83
2024-04-12T23:46:57.783Z,4.45
2024-04-12T23:50:00.170Z,3.83
2024-04-12T23:53:02.548Z,3.90
2024-04-12T23:56:05.004Z,4.45
2024-04-12T23:59:07.297Z,4.60
